createdAt,value
2022-11-05T00:00:30.844Z,7.43
2022-11-05T00:03:16.204Z,7.53
2022-11-05T00:06:04.115Z,8.20
2022-11-05T00:08:50.176Z,7.17
2022-11-05T00:11:18.414Z,8.17
2022-11-05T00:14:04.163Z,7.97
2022-11-05T00:16:46.203Z,7.40
2022-11-05T00:19:13.477Z,8.30
2022-11-05T00:21:58.531Z,8.00
2022-11-05T00:24:44.033Z,8.40
2022-11-05T00:27:11.041Z,7.27
2022-11-05T00:29:38.380Z,8.50
2022-11-05T00:32:05.009Z,8.23
2022-11-05T00:34:31.867Z,8.57
2022-11-05T00:36:58.438Z,9.20
2022-11-05T00:39:25.002Z,8.20
2022-11-05T00:42:11.523Z,9.37
2022-11-05T00:44:57.008Z,7.77
2022-11-05T00:47:42.200Z,8.40
2022-11-05T00:50:11.038Z,9.40
2022-11-05T00:52:57.262Z,8.53
2022-11-05T00:55:38.711Z,9.50
2022-11-05T00:58:11.846Z,8.07
2022-11-05T01:00:43.031Z,8.07
2022-11-05T01:03:13.504Z,8.20
2022-11-05T01:05:42.735Z,8.20
2022-11-05T01:08:10.407Z,8.10
2022-11-05T01:10:45.047Z,7.27
2022-11-05T01:13:13.500Z,8.07
2022-11-05T01:15:40.933Z,7.90
2022-11-05T01:18:07.885Z,8.47
2022-11-05T01:20:34.452Z,7.70
2022-11-05T01:23:01.038Z,8.30
2022-11-05T01:25:27.612Z,8.50
2022-11-05T01:27:54.172Z,8.47
2022-11-05T01:30:20.929Z,7.80
2022-11-05T01:32:47.769Z,7.90
2022-11-05T01:35:17.367Z,8.00
2022-11-05T01:37:44.940Z,8.93
2022-11-05T01:40:16.341Z,9.03
2022-11-05T01:42:43.789Z,8.10
2022-11-05T01:45:13.325Z,9.57
2022-11-05T01:47:43.573Z,8.40
2022-11-05T01:50:26.640Z,8.97
2022-11-05T01:53:02.628Z,9.10
2022-11-05T01:55:34.529Z,8.50
2022-11-05T01:58:03.326Z,8.00
2022-11-05T02:00:30.420Z,9.67
2022-11-05T02:02:57.861Z,9.33
2022-11-05T02:05:24.635Z,9.07
2022-11-05T02:07:52.289Z,8.07
2022-11-05T02:10:19.141Z,8.10
2022-11-05T02:12:48.413Z,8.10
2022-11-05T02:15:25.832Z,7.03
2022-11-05T02:18:10.625Z,7.30
2022-11-05T02:20:45.753Z,7.87
2022-11-05T02:23:44.794Z,7.03
2022-11-05T02:26:36.144Z,7.40
2022-11-05T02:29:17.972Z,7.77
2022-11-05T02:32:17.684Z,7.50
2022-11-05T02:35:02.327Z,7.53
2022-11-05T02:37:44.241Z,6.80
2022-11-05T02:40:14.670Z,7.70
2022-11-05T02:42:56.673Z,7.23
2022-11-05T02:45:46.171Z,7.40
2022-11-05T02:48:46.761Z,7.70
2022-11-05T02:51:40.327Z,7.70
2022-11-05T02:54:24.557Z,7.30
2022-11-05T02:56:53.793Z,7.60
2022-11-05T02:59:20.377Z,7.10
2022-11-05T03:01:48.575Z,7.67
2022-11-05T03:04:19.248Z,8.17
2022-11-05T03:07:18.984Z,7.77
2022-11-05T03:10:22.972Z,7.20
2022-11-05T03:13:08.759Z,7.70
2022-11-05T03:15:48.825Z,7.87
2022-11-05T03:18:18.297Z,7.57
2022-11-05T03:21:02.920Z,7.97
2022-11-05T03:23:36.628Z,7.33
2022-11-05T03:26:17.551Z,8.30
2022-11-05T03:28:54.580Z,7.07
2022-11-05T03:31:23.410Z,7.63
2022-11-05T03:33:53.296Z,7.37
2022-11-05T03:36:26.503Z,6.90
2022-11-05T03:38:56.959Z,7.70
2022-11-05T03:41:25.214Z,8.00
2022-11-05T03:43:57.264Z,8.50
2022-11-05T03:46:38.579Z,7.53
2022-11-05T03:49:10.725Z,7.90
2022-11-05T03:51:51.022Z,7.50
2022-11-05T03:54:17.728Z,7.10
2022-11-05T03:56:48.667Z,7.70
2022-11-05T03:59:17.259Z,7.10
2022-11-05T04:01:44.184Z,8.20
2022-11-05T04:04:11.304Z,7.40
2022-11-05T04:06:56.495Z,7.07
2022-11-05T04:09:41.671Z,5.80
2022-11-05T04:12:29.500Z,7.17
2022-11-05T04:14:56.788Z,7.10
2022-11-05T04:17:24.000Z,6.93
2022-11-05T04:20:09.260Z,7.80
2022-11-05T04:22:54.468Z,6.63
2022-11-05T04:25:25.446Z,6.10
2022-11-05T04:28:11.781Z,7.00
2022-11-05T04:30:50.849Z,6.00
2022-11-05T04:33:25.129Z,7.00
2022-11-05T04:36:00.585Z,6.93
2022-11-05T04:38:58.588Z,5.57
2022-11-05T04:45:05.960Z,6.40
2022-11-05T04:48:03.891Z,7.53
2022-11-05T04:50:54.237Z,7.30
2022-11-05T04:53:33.547Z,6.50
2022-11-05T04:56:27.776Z,7.37
2022-11-05T04:59:00.237Z,7.50
2022-11-05T05:01:41.822Z,7.47
2022-11-05T05:04:48.507Z,6.87
2022-11-05T05:07:34.474Z,7.07
2022-11-05T05:10:24.917Z,6.77
2022-11-05T05:14:07.083Z,6.20
2022-11-05T05:17:21.751Z,5.90
2022-11-05T05:25:00.700Z,6.33
2022-11-05T05:31:53.309Z,6.20
2022-11-05T05:35:05.175Z,6.57
2022-11-05T05:38:14.606Z,6.23
2022-11-05T05:41:13.883Z,6.57
2022-11-05T05:48:10.086Z,8.10
2022-11-05T05:50:55.359Z,7.93
2022-11-05T05:53:40.306Z,6.40
2022-11-05T05:56:11.647Z,9.50
2022-11-05T05:58:54.619Z,9.07
2022-11-05T06:01:31.301Z,6.70
2022-11-05T06:03:58.131Z,7.50
2022-11-05T06:06:28.021Z,6.43
2022-11-05T06:09:04.294Z,5.67
2022-11-05T06:11:40.253Z,5.50
2022-11-05T06:14:10.483Z,6.97
2022-11-05T06:16:39.130Z,7.50
2022-11-05T06:19:08.984Z,6.20
2022-11-05T06:21:35.918Z,5.73
2022-11-05T06:24:04.052Z,5.37
2022-11-05T06:26:31.105Z,7.97
2022-11-05T06:28:57.745Z,5.30
2022-11-05T06:31:24.849Z,5.27
2022-11-05T06:33:51.533Z,6.27
2022-11-05T06:36:19.479Z,6.30
2022-11-05T06:38:46.727Z,5.80
2022-11-05T06:41:13.398Z,6.60
2022-11-05T06:43:40.645Z,5.77
2022-11-05T06:46:07.368Z,6.00
2022-11-05T06:48:34.787Z,5.70
2022-11-05T06:51:12.013Z,5.90
2022-11-05T06:53:41.072Z,9.33
2022-11-05T06:56:09.879Z,6.40
2022-11-05T06:58:36.917Z,6.60
2022-11-05T07:01:10.817Z,6.50
2022-11-05T07:03:38.169Z,6.67
2022-11-05T07:06:06.820Z,6.77
2022-11-05T07:08:34.953Z,7.20
2022-11-05T07:11:02.025Z,7.20
2022-11-05T07:13:29.643Z,7.27
2022-11-05T07:15:59.520Z,8.30
2022-11-05T07:18:26.737Z,8.77
2022-11-05T07:20:53.375Z,7.80
2022-11-05T07:23:20.248Z,7.97
2022-11-05T07:25:46.894Z,9.60
2022-11-05T07:28:14.556Z,9.70
2022-11-05T07:30:41.426Z,8.37
2022-11-05T07:33:08.815Z,7.90
2022-11-05T07:35:36.018Z,8.90
2022-11-05T07:38:03.735Z,7.40
2022-11-05T07:40:30.562Z,6.97
2022-11-05T07:43:00.129Z,7.37
2022-11-05T07:45:29.044Z,6.87
2022-11-05T07:48:00.649Z,7.63
2022-11-05T07:50:31.302Z,6.80
2022-11-05T07:53:02.665Z,7.20
2022-11-05T07:55:30.063Z,6.70
2022-11-05T07:57:56.959Z,6.80
2022-11-05T08:00:25.091Z,5.90
2022-11-05T08:03:07.344Z,6.00
2022-11-05T08:05:41.005Z,5.30
2022-11-05T08:08:09.478Z,5.50
2022-11-05T08:10:37.661Z,4.60
2022-11-05T08:13:05.482Z,5.27
2022-11-05T08:15:32.457Z,5.53
2022-11-05T08:18:03.487Z,5.10
2022-11-05T08:20:33.417Z,5.20
2022-11-05T08:23:07.918Z,5.57
2022-11-05T08:25:49.043Z,4.87
2022-11-05T08:28:15.841Z,5.07
2022-11-05T08:30:42.689Z,5.10
2022-11-05T08:33:12.740Z,5.00
2022-11-05T08:35:40.335Z,5.07
2022-11-05T08:38:09.816Z,5.57
2022-11-05T08:40:36.855Z,4.50
2022-11-05T08:43:06.862Z,4.90
2022-11-05T08:45:39.701Z,4.47
2022-11-05T08:48:12.340Z,4.80
2022-11-05T08:50:43.190Z,4.63
2022-11-05T08:53:12.971Z,5.07
2022-11-05T08:55:43.859Z,4.10
2022-11-05T08:58:12.693Z,4.47
2022-11-05T09:00:53.089Z,5.03
2022-11-05T09:03:22.586Z,4.27
2022-11-05T09:05:49.434Z,4.70
2022-11-05T09:08:18.402Z,3.93
2022-11-05T09:10:46.537Z,4.00
2022-11-05T09:13:18.906Z,4.00
2022-11-05T09:15:50.343Z,4.50
2022-11-05T09:18:17.866Z,3.93
2022-11-05T09:20:45.118Z,4.57
2022-11-05T09:23:14.730Z,4.83
2022-11-05T09:25:42.061Z,4.10
2022-11-05T09:28:08.854Z,4.40
2022-11-05T09:30:38.909Z,4.47
2022-11-05T09:33:05.530Z,4.70
2022-11-05T09:35:32.139Z,4.00
2022-11-05T09:38:01.066Z,3.73
2022-11-05T09:40:32.513Z,3.90
2022-11-05T09:43:00.601Z,4.13
2022-11-05T09:45:28.697Z,4.97
2022-11-05T09:48:05.056Z,4.10
2022-11-05T09:50:40.488Z,3.63
2022-11-05T09:53:07.880Z,3.47
2022-11-05T09:55:41.933Z,3.63
2022-11-05T09:58:28.387Z,3.57
2022-11-05T10:00:55.619Z,3.90
2022-11-05T10:03:23.864Z,3.27
2022-11-05T10:05:58.200Z,4.50
2022-11-05T10:08:29.713Z,3.70
2022-11-05T10:11:03.083Z,3.43
2022-11-05T10:13:37.684Z,3.53
2022-11-05T10:16:29.433Z,3.33
2022-11-05T10:19:06.392Z,3.77
2022-11-05T10:22:04.477Z,4.60
2022-11-05T10:24:21.161Z,3.40
2022-11-05T10:26:50.736Z,3.30
2022-11-05T10:29:27.457Z,3.60
2022-11-05T10:31:55.949Z,3.80
2022-11-05T10:34:26.368Z,3.73
2022-11-05T10:36:54.343Z,3.33
2022-11-05T10:39:23.290Z,3.40
2022-11-05T10:42:08.549Z,3.73
2022-11-05T10:44:48.539Z,4.03
2022-11-05T10:47:46.171Z,3.80
2022-11-05T10:50:23.296Z,3.70
2022-11-05T10:53:16.832Z,3.60
2022-11-05T10:55:51.537Z,3.57
2022-11-05T10:58:21.181Z,4.00
2022-11-05T11:00:53.900Z,3.67
2022-11-05T11:03:38.796Z,3.80
2022-11-05T11:06:27.392Z,3.80
2022-11-05T11:08:56.955Z,3.40
2022-11-05T11:11:36.100Z,3.97
2022-11-05T11:14:05.153Z,3.80
2022-11-05T11:16:44.088Z,4.43
2022-11-05T11:19:33.449Z,4.00
2022-11-05T11:22:03.694Z,4.03
2022-11-05T11:24:41.495Z,4.47
2022-11-05T11:27:18.190Z,3.90
2022-11-05T11:30:05.179Z,3.60
2022-11-05T11:32:46.160Z,4.13
2022-11-05T11:35:27.960Z,3.73
2022-11-05T11:37:57.258Z,4.10
2022-11-05T11:40:38.222Z,4.10
2022-11-05T11:43:15.164Z,4.50
2022-11-05T11:45:53.952Z,3.93
2022-11-05T11:48:40.695Z,4.40
2022-11-05T11:51:49.523Z,3.70
2022-11-05T11:54:28.840Z,4.70
2022-11-05T11:56:55.843Z,3.57
2022-11-05T11:59:53.857Z,4.50
2022-11-05T12:02:34.848Z,3.63
2022-11-05T12:05:27.633Z,3.80
2022-11-05T12:07:57.943Z,3.90
2022-11-05T12:10:42.611Z,5.10
2022-11-05T12:13:18.381Z,3.73
2022-11-05T12:15:57.639Z,3.87
2022-11-05T12:18:48.485Z,4.00
2022-11-05T12:21:51.450Z,4.50
2022-11-05T12:24:31.826Z,4.20
2022-11-05T12:27:44.131Z,4.47
2022-11-05T12:30:23.698Z,3.77
2022-11-05T12:33:25.861Z,4.37
2022-11-05T12:36:21.158Z,4.53
2022-11-05T12:39:19.175Z,4.43
2022-11-05T12:41:49.019Z,4.27
2022-11-05T12:44:40.944Z,4.63
2022-11-05T12:47:33.509Z,4.20
2022-11-05T12:50:18.025Z,4.03
2022-11-05T12:52:59.876Z,4.77
2022-11-05T12:55:33.132Z,3.83
2022-11-05T12:58:10.344Z,3.97
2022-11-05T13:00:40.691Z,4.43
2022-11-05T13:03:07.160Z,5.20
2022-11-05T13:05:42.041Z,5.03
2022-11-05T13:08:24.254Z,4.97
2022-11-05T13:11:14.185Z,5.27
2022-11-05T13:13:51.651Z,4.93
2022-11-05T13:16:47.631Z,4.90
2022-11-05T13:19:22.911Z,4.70
2022-11-05T13:21:56.550Z,4.57
2022-11-05T13:24:39.089Z,4.63
2022-11-05T13:27:19.144Z,5.50
2022-11-05T13:29:52.733Z,5.37
2022-11-05T13:32:40.824Z,4.80
2022-11-05T13:35:17.711Z,4.23
2022-11-05T13:38:08.349Z,5.00
2022-11-05T13:40:51.665Z,4.80
2022-11-05T13:43:57.800Z,5.70
2022-11-05T13:47:01.363Z,5.97
2022-11-05T13:50:06.711Z,6.00
2022-11-05T13:52:48.483Z,7.47
2022-11-05T13:55:42.279Z,6.70
2022-11-05T13:58:11.893Z,6.60
2022-11-05T14:01:13.910Z,6.87
2022-11-05T14:03:47.146Z,6.87
2022-11-05T14:06:14.247Z,6.17
2022-11-05T14:08:44.523Z,7.43
2022-11-05T14:11:37.219Z,7.60
2022-11-05T14:14:26.006Z,6.83
2022-11-05T14:17:08.277Z,7.07
2022-11-05T14:20:02.698Z,6.90
2022-11-05T14:22:33.264Z,6.30
2022-11-05T14:25:02.020Z,8.00
2022-11-05T14:27:28.483Z,6.87
2022-11-05T14:29:55.605Z,7.30
2022-11-05T14:32:23.624Z,7.00
2022-11-05T14:35:14.841Z,6.80
2022-11-05T14:37:50.287Z,6.70
2022-11-05T14:40:28.922Z,7.30
2022-11-05T14:43:01.581Z,7.00
2022-11-05T14:45:35.834Z,6.73
2022-11-05T14:48:23.359Z,6.97
2022-11-05T14:50:50.697Z,7.53
2022-11-05T14:53:39.383Z,9.60
2022-11-05T14:56:15.931Z,7.87
2022-11-05T14:58:44.166Z,6.70
2022-11-05T15:01:13.672Z,7.70
2022-11-05T15:03:45.790Z,7.60
2022-11-05T15:06:35.126Z,7.20
2022-11-05T15:09:15.707Z,7.97
2022-11-05T15:11:54.739Z,7.83
2022-11-05T15:14:28.622Z,6.90
2022-11-05T15:17:13.443Z,7.00
2022-11-05T15:19:41.308Z,7.93
2022-11-05T15:22:20.681Z,6.70
2022-11-05T15:24:47.450Z,6.87
2022-11-05T15:27:20.938Z,7.50
2022-11-05T15:29:48.008Z,6.50
2022-11-05T15:32:23.588Z,6.40
2022-11-05T15:34:52.720Z,7.30
2022-11-05T15:37:27.905Z,6.30
2022-11-05T15:39:55.738Z,6.40
2022-11-05T15:42:24.576Z,6.43
2022-11-05T15:44:53.481Z,6.20
2022-11-05T15:47:34.334Z,6.80
2022-11-05T15:50:07.472Z,6.60
2022-11-05T15:52:42.257Z,5.80
2022-11-05T15:55:19.576Z,6.80
2022-11-05T15:57:52.056Z,6.10
2022-11-05T16:00:22.346Z,6.13
2022-11-05T16:03:00.810Z,7.40
2022-11-05T16:05:30.830Z,6.87
2022-11-05T16:07:58.756Z,5.53
2022-11-05T16:10:32.434Z,6.67
2022-11-05T16:13:41.226Z,6.07
2022-11-05T16:16:13.565Z,5.80
2022-11-05T16:18:42.605Z,6.50
2022-11-05T16:21:12.588Z,6.87
2022-11-05T16:23:49.587Z,8.03
2022-11-05T16:27:01.135Z,6.27
2022-11-05T16:29:29.347Z,6.93
2022-11-05T16:31:57.683Z,5.67
2022-11-05T16:34:52.429Z,5.07
2022-11-05T16:37:23.727Z,5.03
2022-11-05T16:39:50.945Z,5.83
2022-11-05T16:42:39.778Z,5.60
2022-11-05T16:45:07.642Z,6.43
2022-11-05T16:47:34.751Z,6.10
2022-11-05T16:50:01.431Z,6.27
2022-11-05T16:52:28.146Z,5.23
2022-11-05T16:54:54.736Z,6.03
2022-11-05T16:57:28.994Z,5.80
2022-11-05T16:59:56.901Z,6.07
2022-11-05T17:02:23.820Z,5.90
2022-11-05T17:04:50.933Z,4.83
2022-11-05T17:07:17.460Z,5.77
2022-11-05T17:09:44.108Z,5.30
2022-11-05T17:12:11.247Z,5.30
2022-11-05T17:14:37.814Z,6.13
2022-11-05T17:17:04.752Z,5.87
2022-11-05T17:19:31.631Z,6.30
2022-11-05T17:21:58.202Z,6.40
2022-11-05T17:24:24.788Z,5.13
2022-11-05T17:26:51.368Z,6.37
2022-11-05T17:29:17.891Z,5.93
2022-11-05T17:31:44.843Z,5.20
2022-11-05T17:34:11.404Z,5.00
2022-11-05T17:36:37.970Z,6.50
2022-11-05T17:39:04.728Z,5.97
2022-11-05T17:41:31.351Z,5.70
2022-11-05T17:43:59.024Z,5.07
2022-11-05T17:46:25.768Z,5.60
2022-11-05T17:48:52.699Z,6.00
2022-11-05T17:51:20.281Z,5.17
2022-11-05T17:53:49.498Z,4.97
2022-11-05T17:56:28.949Z,6.00
2022-11-05T17:59:00.675Z,5.93
2022-11-05T18:01:32.822Z,5.70
2022-11-05T18:04:03.823Z,5.40
2022-11-05T18:06:34.982Z,5.70
2022-11-05T18:09:01.968Z,6.00
2022-11-05T18:11:28.596Z,6.23
2022-11-05T18:13:55.313Z,6.20
2022-11-05T18:16:21.985Z,6.07
2022-11-05T18:18:49.212Z,5.27
2022-11-05T18:21:16.043Z,5.67
2022-11-05T18:23:43.110Z,4.70
2022-11-05T18:26:11.130Z,6.30
2022-11-05T18:28:38.347Z,5.17
2022-11-05T18:31:15.285Z,4.90
2022-11-05T18:33:44.555Z,5.80
2022-11-05T18:36:19.113Z,5.77
2022-11-05T18:38:47.533Z,6.70
2022-11-05T18:41:14.711Z,5.57
2022-11-05T18:43:41.345Z,5.67
2022-11-05T18:46:08.405Z,5.97
2022-11-05T18:48:36.147Z,5.67
2022-11-05T18:51:14.940Z,5.30
2022-11-05T18:53:42.068Z,5.60
2022-11-05T18:56:14.010Z,5.37
2022-11-05T18:58:41.527Z,5.30
2022-11-05T19:01:16.336Z,6.10
2022-11-05T19:03:43.536Z,4.93
2022-11-05T19:06:10.317Z,5.20
2022-11-05T19:08:37.360Z,5.60
2022-11-05T19:11:09.806Z,5.43
2022-11-05T19:13:36.654Z,5.60
2022-11-05T19:16:10.810Z,4.63
2022-11-05T19:18:38.443Z,4.67
2022-11-05T19:21:13.751Z,5.43
2022-11-05T19:23:40.523Z,5.27
2022-11-05T19:26:09.337Z,5.60
2022-11-05T19:28:36.821Z,5.27
2022-11-05T19:31:04.075Z,7.83
2022-11-05T19:33:31.530Z,10.00
2022-11-05T19:35:59.641Z,5.97
2022-11-05T19:38:26.337Z,5.53
2022-11-05T19:40:52.998Z,6.33
2022-11-05T19:43:19.547Z,4.80
2022-11-05T19:45:46.281Z,7.27
2022-11-05T19:48:18.866Z,6.80
2022-11-05T19:50:46.165Z,6.23
2022-11-05T19:53:12.908Z,5.60
2022-11-05T19:55:40.658Z,6.10
2022-11-05T19:58:09.367Z,5.27
2022-11-05T20:00:36.933Z,5.10
2022-11-05T20:03:03.995Z,5.53
2022-11-05T20:05:32.912Z,5.03
2022-11-05T20:07:59.977Z,5.97
2022-11-05T20:10:26.662Z,5.27
2022-11-05T20:12:53.204Z,5.53
2022-11-05T20:15:19.972Z,5.60
2022-11-05T20:17:51.116Z,5.53
2022-11-05T20:20:18.573Z,5.40
2022-11-05T20:22:45.248Z,4.60
2022-11-05T20:25:12.585Z,5.47
2022-11-05T20:27:39.654Z,4.90
2022-11-05T20:30:06.870Z,5.20
2022-11-05T20:32:33.427Z,4.40
2022-11-05T20:34:59.977Z,5.20
2022-11-05T20:37:26.710Z,5.10
2022-11-05T20:39:53.394Z,5.33
2022-11-05T20:42:20.036Z,4.73
2022-11-05T20:44:46.920Z,4.40
2022-11-05T20:47:13.481Z,4.10
2022-11-05T20:49:40.158Z,5.07
2022-11-05T20:52:06.669Z,4.40
2022-11-05T20:54:33.247Z,6.33
2022-11-05T20:56:59.993Z,4.77
2022-11-05T20:59:26.619Z,4.80
2022-11-05T21:01:53.232Z,4.53
2022-11-05T21:04:20.053Z,4.47
2022-11-05T21:06:46.617Z,4.63
2022-11-05T21:09:13.213Z,4.27
2022-11-05T21:11:58.266Z,4.87
2022-11-05T21:14:24.850Z,4.90
2022-11-05T21:16:51.745Z,4.80
2022-11-05T21:19:18.420Z,4.10
2022-11-05T21:21:45.295Z,5.30
2022-11-05T21:24:11.849Z,3.80
2022-11-05T21:26:38.774Z,4.00
2022-11-05T21:29:05.339Z,4.80
2022-11-05T21:31:31.988Z,4.10
2022-11-05T21:33:58.621Z,5.33
2022-11-05T21:36:25.151Z,5.17
2022-11-05T21:38:51.664Z,5.20
2022-11-05T21:41:18.637Z,6.30
2022-11-05T21:43:45.295Z,5.17
2022-11-05T21:46:13.447Z,4.10
2022-11-05T21:48:40.041Z,3.77
2022-11-05T21:51:25.276Z,4.63
2022-11-05T21:54:10.630Z,4.10
2022-11-05T21:56:56.315Z,3.63
2022-11-05T21:59:57.104Z,3.83
2022-11-05T22:02:25.628Z,3.17
2022-11-05T22:04:54.186Z,3.90
2022-11-05T22:07:24.452Z,3.50
2022-11-05T22:09:51.168Z,3.50
2022-11-05T22:12:18.035Z,3.60
2022-11-05T22:14:44.664Z,4.40
2022-11-05T22:17:12.459Z,4.00
2022-11-05T22:19:39.687Z,3.87
2022-11-05T22:22:07.840Z,3.60
2022-11-05T22:24:35.457Z,4.50
2022-11-05T22:27:04.414Z,3.60
2022-11-05T22:29:30.982Z,4.20
2022-11-05T22:31:57.734Z,3.30
2022-11-05T22:34:25.636Z,3.50
2022-11-05T22:36:52.303Z,3.40
2022-11-05T22:39:19.321Z,4.33
2022-11-05T22:41:46.766Z,3.63
2022-11-05T22:44:14.158Z,3.63
2022-11-05T22:46:41.690Z,3.50
2022-11-05T22:49:08.336Z,4.37
2022-11-05T22:51:37.480Z,3.20
2022-11-05T22:54:05.118Z,4.20
2022-11-05T22:56:35.644Z,3.60
2022-11-05T22:59:03.206Z,3.50
2022-11-05T23:01:30.181Z,3.50
2022-11-05T23:03:58.509Z,4.30
2022-11-05T23:06:46.823Z,3.60
2022-11-05T23:09:35.539Z,4.10
2022-11-05T23:12:04.628Z,2.90
2022-11-05T23:14:31.561Z,3.63
2022-11-05T23:17:16.757Z,3.93
2022-11-05T23:20:02.020Z,2.87
2022-11-05T23:22:49.605Z,3.10
2022-11-05T23:25:20.331Z,3.40
2022-11-05T23:27:50.047Z,3.10
2022-11-05T23:30:20.007Z,3.20
2022-11-05T23:32:47.467Z,3.10
2022-11-05T23:35:14.602Z,3.10
2022-11-05T23:37:59.537Z,3.13
2022-11-05T23:40:31.815Z,3.17
2022-11-05T23:43:21.382Z,3.40
2022-11-05T23:46:17.889Z,2.50
2022-11-05T23:48:44.445Z,2.97
2022-11-05T23:51:12.298Z,3.13
2022-11-05T23:53:40.646Z,2.50
2022-11-05T23:56:10.493Z,3.23
2022-11-05T23:58:38.683Z,2.40
